createdAt,value
2022-09-25T00:01:25.823Z,13.87
2022-09-25T00:03:53.968Z,15.10
2022-09-25T00:06:25.663Z,15.53
2022-09-25T00:08:54.045Z,30.63
2022-09-25T00:11:24.968Z,16.03
2022-09-25T00:13:53.630Z,18.90
2022-09-25T00:16:24.325Z,21.83
2022-09-25T00:19:09.788Z,18.67
2022-09-25T00:21:39.880Z,14.97
2022-09-25T00:24:10.184Z,15.00
2022-09-25T00:26:40.240Z,21.70
2022-09-25T00:29:10.623Z,15.73
2022-09-25T00:31:38.777Z,14.50
2022-09-25T00:34:07.153Z,16.90
2022-09-25T00:36:36.511Z,16.23
2022-09-25T00:39:06.024Z,13.50
2022-09-25T00:41:34.527Z,17.43
2022-09-25T00:44:04.719Z,14.93
2022-09-25T00:46:35.814Z,15.63
2022-09-25T00:49:06.878Z,19.27
2022-09-25T00:51:38.868Z,16.10
2022-09-25T00:54:11.968Z,15.70
2022-09-25T00:56:43.295Z,17.00
2022-09-25T00:59:15.295Z,18.77
2022-09-25T01:01:43.509Z,13.70
2022-09-25T01:04:12.919Z,13.73
2022-09-25T01:06:41.607Z,13.10
2022-09-25T01:09:11.028Z,18.53
2022-09-25T01:11:39.055Z,15.77
2022-09-25T01:14:08.563Z,13.30
2022-09-25T01:16:42.478Z,21.83
2022-09-25T01:19:24.860Z,17.53
2022-09-25T01:21:55.540Z,17.70
2022-09-25T01:25:00.146Z,15.53
2022-09-25T01:28:06.555Z,15.93
2022-09-25T01:30:42.764Z,20.30
2022-09-25T01:33:16.267Z,13.63
2022-09-25T01:35:57.253Z,19.03
2022-09-25T01:38:32.924Z,14.97
2022-09-25T01:41:09.533Z,20.60
2022-09-25T01:43:40.611Z,17.70
2022-09-25T01:46:16.392Z,16.00
2022-09-25T01:48:46.703Z,21.00
2022-09-25T01:51:19.827Z,16.17
2022-09-25T01:53:52.587Z,23.00
2022-09-25T01:56:26.198Z,20.00
2022-09-25T01:58:57.901Z,24.10
2022-09-25T02:01:31.536Z,20.97
2022-09-25T02:04:05.826Z,20.70
2022-09-25T02:06:35.870Z,20.20
2022-09-25T02:09:08.227Z,21.53
2022-09-25T02:11:41.126Z,19.73
2022-09-25T02:14:16.598Z,17.37
2022-09-25T02:16:49.245Z,17.83
2022-09-25T02:19:35.831Z,20.60
2022-09-25T02:22:10.799Z,19.13
2022-09-25T02:24:48.954Z,16.03
2022-09-25T02:27:18.294Z,20.53
2022-09-25T02:29:46.363Z,20.37
2022-09-25T02:32:19.180Z,22.10
2022-09-25T02:34:48.427Z,24.80
2022-09-25T02:37:18.589Z,20.70
2022-09-25T02:39:50.364Z,23.50
2022-09-25T02:42:32.512Z,22.87
2022-09-25T02:45:13.284Z,27.50
2022-09-25T02:47:55.261Z,18.60
2022-09-25T02:50:27.896Z,20.53
2022-09-25T02:53:04.934Z,23.13
2022-09-25T02:55:40.327Z,20.97
2022-09-25T02:58:15.509Z,22.70
2022-09-25T03:00:47.053Z,24.40
2022-09-25T03:03:20.140Z,20.30
2022-09-25T03:05:50.097Z,21.40
2022-09-25T03:08:36.380Z,19.40
2022-09-25T03:11:05.107Z,20.73
2022-09-25T03:13:34.089Z,20.53
2022-09-25T03:16:05.851Z,18.30
2022-09-25T03:18:35.342Z,20.33
2022-09-25T03:21:04.234Z,16.47
2022-09-25T03:23:32.707Z,17.03
2022-09-25T03:26:01.318Z,19.83
2022-09-25T03:28:29.535Z,22.37
2022-09-25T03:31:03.131Z,18.50
2022-09-25T03:33:35.117Z,19.80
2022-09-25T03:36:11.843Z,17.73
2022-09-25T03:38:41.167Z,19.50
2022-09-25T03:41:10.037Z,18.17
2022-09-25T03:43:38.958Z,19.30
2022-09-25T03:46:09.377Z,20.47
2022-09-25T03:48:38.064Z,22.27
2022-09-25T03:51:07.967Z,20.20
2022-09-25T03:53:36.414Z,22.40
2022-09-25T03:56:08.655Z,21.87
2022-09-25T03:58:36.994Z,18.47
2022-09-25T04:01:05.538Z,22.20
2022-09-25T04:03:35.555Z,19.10
2022-09-25T04:06:05.824Z,17.40
2022-09-25T04:08:37.203Z,18.63
2022-09-25T04:11:06.547Z,25.03
2022-09-25T04:13:37.287Z,27.47
2022-09-25T04:16:08.203Z,24.83
2022-09-25T04:18:36.767Z,18.03
2022-09-25T04:21:06.870Z,19.23
2022-09-25T04:23:36.931Z,18.27
2022-09-25T04:26:05.322Z,17.33
2022-09-25T04:28:33.358Z,18.43
2022-09-25T04:31:02.494Z,17.77
2022-09-25T04:33:48.105Z,21.20
2022-09-25T04:36:16.996Z,22.70
2022-09-25T04:38:46.523Z,22.00
2022-09-25T04:41:16.561Z,25.60
2022-09-25T04:43:44.581Z,23.47
2022-09-25T04:46:20.036Z,23.33
2022-09-25T04:48:49.665Z,26.53
2022-09-25T04:51:17.654Z,26.47
2022-09-25T04:53:47.224Z,24.60
2022-09-25T04:56:16.614Z,25.07
2022-09-25T04:58:46.608Z,25.07
2022-09-25T05:01:14.830Z,25.90
2022-09-25T05:03:43.858Z,30.37
2022-09-25T05:06:11.926Z,29.90
2022-09-25T05:08:39.899Z,26.23
2022-09-25T05:11:09.379Z,30.40
2022-09-25T05:13:37.463Z,26.53
2022-09-25T05:16:05.646Z,36.23
2022-09-25T05:18:33.707Z,29.23
2022-09-25T05:21:05.273Z,25.67
2022-09-25T05:23:33.338Z,30.47
2022-09-25T05:26:02.278Z,27.03
2022-09-25T05:28:32.687Z,29.10
2022-09-25T05:31:02.714Z,31.67
2022-09-25T05:33:31.102Z,28.07
2022-09-25T05:36:02.400Z,28.10
2022-09-25T05:38:32.449Z,28.37
2022-09-25T05:41:04.410Z,36.10
2022-09-25T05:43:34.767Z,36.30
2022-09-25T05:46:04.996Z,28.77
2022-09-25T05:48:33.413Z,29.80
2022-09-25T05:51:01.538Z,29.43
2022-09-25T05:53:30.547Z,28.50
2022-09-25T05:56:00.450Z,30.23
2022-09-25T05:58:29.779Z,34.93
2022-09-25T06:01:01.348Z,47.80
2022-09-25T06:03:30.192Z,33.70
2022-09-25T06:05:58.438Z,32.23
2022-09-25T06:08:26.927Z,34.17
2022-09-25T06:10:55.865Z,42.87
2022-09-25T06:13:25.488Z,37.23
2022-09-25T06:15:54.286Z,36.90
2022-09-25T06:18:25.874Z,44.80
2022-09-25T06:21:00.909Z,44.63
2022-09-25T06:23:29.294Z,43.53
2022-09-25T06:26:01.415Z,40.67
2022-09-25T06:28:29.813Z,36.40
2022-09-25T06:31:00.775Z,40.47
2022-09-25T06:33:30.560Z,43.17
2022-09-25T06:35:58.705Z,41.40
2022-09-25T06:38:26.833Z,43.37
2022-09-25T06:40:59.292Z,38.63
2022-09-25T06:43:28.388Z,39.47
2022-09-25T06:46:00.049Z,46.10
2022-09-25T06:48:30.148Z,53.27
2022-09-25T06:50:59.581Z,39.60
2022-09-25T06:53:28.301Z,39.20
2022-09-25T06:55:59.416Z,44.20
2022-09-25T06:58:27.819Z,41.63
2022-09-25T07:00:57.355Z,42.20
2022-09-25T07:03:43.030Z,45.70
2022-09-25T07:06:13.959Z,45.13
2022-09-25T07:08:43.740Z,42.00
2022-09-25T07:11:15.204Z,43.93
2022-09-25T07:13:43.895Z,40.67
2022-09-25T07:16:14.597Z,44.70
2022-09-25T07:18:43.764Z,48.20
2022-09-25T07:21:15.001Z,59.70
2022-09-25T07:23:43.786Z,50.27
2022-09-25T07:26:14.063Z,61.67
2022-09-25T07:28:43.963Z,41.30
2022-09-25T07:31:15.178Z,44.23
2022-09-25T07:33:43.328Z,47.60
2022-09-25T07:36:12.048Z,48.40
2022-09-25T07:38:42.104Z,51.43
2022-09-25T07:41:13.458Z,44.47
2022-09-25T07:43:43.404Z,47.20
2022-09-25T07:46:12.055Z,43.33
2022-09-25T07:48:40.452Z,50.73
2022-09-25T07:51:10.071Z,56.67
2022-09-25T07:53:38.209Z,44.90
2022-09-25T07:56:07.868Z,42.20
2022-09-25T07:58:37.045Z,47.70
2022-09-25T08:01:07.589Z,51.90
2022-09-25T08:03:35.854Z,49.20
2022-09-25T08:06:05.833Z,63.97
2022-09-25T08:08:35.656Z,51.27
2022-09-25T08:11:06.912Z,42.17
2022-09-25T08:13:38.245Z,46.23
2022-09-25T08:16:07.831Z,37.17
2022-09-25T08:18:36.259Z,33.80
2022-09-25T08:21:05.213Z,43.13
2022-09-25T08:23:34.029Z,40.07
2022-09-25T08:26:02.550Z,39.27
2022-09-25T08:28:30.653Z,36.50
2022-09-25T08:31:04.586Z,36.83
2022-09-25T08:33:34.524Z,37.60
2022-09-25T08:36:04.984Z,45.37
2022-09-25T08:38:34.005Z,50.53
2022-09-25T08:41:05.976Z,33.13
2022-09-25T08:43:36.329Z,37.13
2022-09-25T08:46:33.506Z,33.50
2022-09-25T08:49:06.140Z,37.30
2022-09-25T08:51:38.355Z,31.63
2022-09-25T08:54:07.464Z,35.23
2022-09-25T08:56:37.736Z,26.70
2022-09-25T08:59:22.750Z,29.60
2022-09-25T09:01:55.718Z,29.80
2022-09-25T09:04:28.987Z,31.73
2022-09-25T09:07:25.622Z,26.80
2022-09-25T09:09:56.420Z,34.60
2022-09-25T09:12:30.346Z,32.90
2022-09-25T09:15:12.032Z,27.80
2022-09-25T09:17:44.008Z,30.53
2022-09-25T09:20:19.034Z,32.17
2022-09-25T09:22:52.731Z,24.80
2022-09-25T09:25:29.212Z,28.07
2022-09-25T09:28:18.477Z,29.20
2022-09-25T09:30:57.396Z,27.67
2022-09-25T09:33:47.435Z,28.20
2022-09-25T09:36:25.557Z,25.30
2022-09-25T09:39:03.423Z,23.37
2022-09-25T09:41:50.098Z,23.90
2022-09-25T09:44:33.127Z,30.40
2022-09-25T09:47:08.752Z,30.13
2022-09-25T09:49:44.234Z,23.80
2022-09-25T09:52:16.993Z,28.90
2022-09-25T09:54:49.171Z,27.40
2022-09-25T09:57:22.199Z,29.87
2022-09-25T09:59:55.242Z,23.70
2022-09-25T10:02:33.791Z,26.47
2022-09-25T10:05:09.315Z,26.53
2022-09-25T10:07:41.200Z,23.80
2022-09-25T10:10:15.032Z,24.30
2022-09-25T10:12:47.605Z,29.80
2022-09-25T10:15:30.103Z,26.50
2022-09-25T10:18:01.738Z,25.17
2022-09-25T10:20:40.177Z,30.20
2022-09-25T10:23:22.942Z,24.07
2022-09-25T10:25:55.729Z,24.63
2022-09-25T10:28:28.934Z,28.93
2022-09-25T10:30:58.974Z,28.87
2022-09-25T10:33:29.091Z,25.33
2022-09-25T10:35:59.033Z,25.40
2022-09-25T10:38:34.473Z,21.73
2022-09-25T10:41:07.240Z,33.43
2022-09-25T10:43:35.518Z,22.70
2022-09-25T10:46:14.747Z,27.70
2022-09-25T10:49:01.327Z,20.63
2022-09-25T10:51:32.394Z,27.10
2022-09-25T10:54:13.476Z,27.57
2022-09-25T10:56:41.726Z,23.23
2022-09-25T10:59:18.619Z,26.83
2022-09-25T11:01:49.197Z,28.70
2022-09-25T11:04:21.528Z,22.80
2022-09-25T11:06:53.344Z,23.20
2022-09-25T11:09:23.940Z,28.50
2022-09-25T11:12:04.963Z,42.10
2022-09-25T11:14:36.058Z,22.33
2022-09-25T11:17:06.863Z,30.00
2022-09-25T11:19:36.784Z,22.70
2022-09-25T11:22:18.076Z,27.30
2022-09-25T11:24:57.293Z,20.90
2022-09-25T11:27:35.988Z,20.73
2022-09-25T11:30:07.544Z,21.63
2022-09-25T11:32:43.318Z,24.47
2022-09-25T11:35:25.950Z,37.43
2022-09-25T11:38:05.105Z,22.10
2022-09-25T11:40:58.086Z,23.03
2022-09-25T11:43:37.426Z,24.30
2022-09-25T11:46:12.044Z,30.50
2022-09-25T11:48:55.660Z,20.87
2022-09-25T11:51:35.958Z,18.50
2022-09-25T11:54:32.745Z,19.40
2022-09-25T11:57:07.531Z,22.63
2022-09-25T11:59:47.695Z,23.10
2022-09-25T12:02:26.225Z,19.80
2022-09-25T12:05:09.735Z,24.20
2022-09-25T12:07:49.887Z,17.87
2022-09-25T12:10:30.340Z,17.63
2022-09-25T12:13:04.299Z,16.03
2022-09-25T12:15:46.742Z,30.40
2022-09-25T12:18:24.140Z,16.53
2022-09-25T12:20:58.758Z,18.43
2022-09-25T12:23:32.132Z,16.87
2022-09-25T12:26:16.541Z,21.20
2022-09-25T12:28:58.069Z,38.97
2022-09-25T12:31:34.794Z,18.10
2022-09-25T12:34:11.504Z,18.37
2022-09-25T12:36:45.647Z,28.83
2022-09-25T12:39:27.306Z,28.47
2022-09-25T12:42:07.586Z,15.70
2022-09-25T12:44:44.867Z,15.20
2022-09-25T12:47:21.547Z,22.60
2022-09-25T12:49:56.591Z,15.17
2022-09-25T12:52:28.295Z,36.70
2022-09-25T12:55:02.361Z,15.90
2022-09-25T12:57:38.316Z,14.97
2022-09-25T13:00:09.774Z,98.50
2022-09-25T13:02:44.934Z,21.43
2022-09-25T13:05:21.984Z,22.37
2022-09-25T13:07:56.128Z,15.60
2022-09-25T13:10:30.882Z,15.97
2022-09-25T13:13:03.794Z,25.97
2022-09-25T13:15:35.179Z,24.20
2022-09-25T13:18:16.331Z,13.10
2022-09-25T13:20:52.805Z,12.60
2022-09-25T13:23:31.776Z,12.00
2022-09-25T13:26:02.587Z,18.07
2022-09-25T13:28:35.382Z,13.07
2022-09-25T13:31:12.514Z,17.17
2022-09-25T13:33:47.148Z,11.13
2022-09-25T13:36:32.383Z,19.30
2022-09-25T13:39:20.718Z,15.60
2022-09-25T13:41:51.803Z,18.00
2022-09-25T13:45:06.095Z,15.90
2022-09-25T13:47:53.363Z,12.23
2022-09-25T13:50:42.747Z,15.80
2022-09-25T13:53:42.807Z,14.40
2022-09-25T13:56:30.119Z,15.10
2022-09-25T13:59:03.994Z,16.00
2022-09-25T14:01:39.231Z,14.77
2022-09-25T14:04:14.878Z,25.43
2022-09-25T14:06:44.692Z,14.00
2022-09-25T14:09:15.460Z,15.50
2022-09-25T14:11:45.757Z,16.90
2022-09-25T14:14:28.009Z,17.63
2022-09-25T14:16:59.563Z,13.30
2022-09-25T14:19:31.313Z,19.87
2022-09-25T14:22:01.452Z,14.10
2022-09-25T14:24:31.467Z,17.77
2022-09-25T14:27:01.308Z,13.47
2022-09-25T14:29:32.755Z,13.27
2022-09-25T14:32:42.825Z,17.00
2022-09-25T14:35:30.035Z,15.80
2022-09-25T14:38:23.399Z,12.47
2022-09-25T14:41:05.980Z,13.23
2022-09-25T14:43:49.631Z,11.30
2022-09-25T14:46:20.235Z,9.43
2022-09-25T14:48:54.238Z,11.80
2022-09-25T14:51:25.941Z,13.07
2022-09-25T14:53:58.349Z,14.17
2022-09-25T14:56:27.666Z,15.07
2022-09-25T14:58:58.917Z,18.40
2022-09-25T15:01:29.899Z,25.03
2022-09-25T15:04:02.328Z,13.03
2022-09-25T15:06:33.118Z,11.17
2022-09-25T15:09:03.063Z,10.30
2022-09-25T15:11:42.222Z,12.53
2022-09-25T15:14:12.047Z,11.00
2022-09-25T15:16:57.839Z,10.00
2022-09-25T15:19:33.073Z,17.27
2022-09-25T15:22:01.787Z,12.60
2022-09-25T15:24:32.728Z,42.80
2022-09-25T15:27:04.011Z,12.10
2022-09-25T15:29:36.668Z,14.10
2022-09-25T15:32:06.406Z,15.50
2022-09-25T15:34:35.962Z,19.80
2022-09-25T15:37:26.156Z,15.17
2022-09-25T15:39:54.620Z,27.00
2022-09-25T15:42:23.211Z,17.93
2022-09-25T15:44:51.394Z,15.53
2022-09-25T15:47:52.097Z,20.80
2022-09-25T15:50:27.544Z,14.03
2022-09-25T15:52:57.763Z,14.03
2022-09-25T15:55:26.715Z,16.30
2022-09-25T15:57:56.610Z,17.00
2022-09-25T16:00:44.410Z,19.10
2022-09-25T16:03:36.010Z,21.57
2022-09-25T16:06:06.039Z,15.47
2022-09-25T16:08:36.678Z,16.40
2022-09-25T16:11:16.616Z,15.20
2022-09-25T16:13:48.555Z,19.90
2022-09-25T16:16:22.244Z,14.77
2022-09-25T16:18:54.317Z,19.00
2022-09-25T16:21:29.087Z,15.27
2022-09-25T16:24:00.080Z,15.23
2022-09-25T16:26:34.247Z,18.80
2022-09-25T16:29:06.619Z,12.70
2022-09-25T16:31:36.306Z,16.00
2022-09-25T16:34:05.838Z,15.33
2022-09-25T16:36:44.717Z,21.13
2022-09-25T16:39:23.830Z,22.03
2022-09-25T16:41:52.231Z,16.93
2022-09-25T16:44:22.348Z,26.20
2022-09-25T16:47:12.913Z,19.90
2022-09-25T16:49:43.481Z,26.80
2022-09-25T16:52:20.186Z,21.30
2022-09-25T16:54:53.116Z,17.23
2022-09-25T16:57:22.522Z,18.40
2022-09-25T16:59:50.947Z,22.83
2022-09-25T17:02:35.909Z,17.40
2022-09-25T17:05:06.628Z,16.70
2022-09-25T17:07:36.144Z,19.33
2022-09-25T17:10:04.668Z,20.20
2022-09-25T17:12:33.156Z,20.23
2022-09-25T17:15:01.297Z,24.77
2022-09-25T17:17:31.022Z,24.83
2022-09-25T17:19:59.232Z,27.13
2022-09-25T17:22:30.263Z,26.03
2022-09-25T17:25:03.363Z,33.30
2022-09-25T17:27:31.572Z,24.67
2022-09-25T17:29:59.936Z,27.83
2022-09-25T17:32:29.287Z,24.60
2022-09-25T17:34:58.511Z,25.80
2022-09-25T17:37:26.675Z,29.27
2022-09-25T17:39:54.699Z,31.33
2022-09-25T17:42:26.121Z,29.33
2022-09-25T17:44:54.958Z,33.40
2022-09-25T17:47:23.491Z,28.87
2022-09-25T17:49:51.668Z,38.40
2022-09-25T17:52:22.114Z,40.60
2022-09-25T17:54:50.145Z,31.33
2022-09-25T17:57:18.236Z,38.90
2022-09-25T17:59:47.644Z,40.77
2022-09-25T18:02:17.683Z,33.73
2022-09-25T18:04:45.928Z,37.07
2022-09-25T18:07:15.454Z,33.30
2022-09-25T18:09:43.459Z,95.53
2022-09-25T18:12:11.521Z,39.43
2022-09-25T18:14:39.596Z,33.37
2022-09-25T18:17:09.177Z,39.20
2022-09-25T18:19:54.025Z,33.00
2022-09-25T18:22:25.352Z,34.93
2022-09-25T18:24:56.537Z,33.77
2022-09-25T18:27:26.710Z,42.40
2022-09-25T18:29:54.868Z,30.03
2022-09-25T18:32:24.979Z,33.00
2022-09-25T18:34:53.647Z,27.83
2022-09-25T18:37:21.721Z,31.23
2022-09-25T18:39:51.336Z,31.20
2022-09-25T18:42:19.741Z,29.50
2022-09-25T18:44:48.312Z,29.10
2022-09-25T18:47:16.393Z,29.57
2022-09-25T18:49:45.799Z,31.60
2022-09-25T18:52:14.171Z,29.23
2022-09-25T18:54:42.427Z,31.30
2022-09-25T18:57:10.880Z,63.80
2022-09-25T18:59:39.467Z,67.73
2022-09-25T19:02:08.500Z,46.23
2022-09-25T19:04:38.210Z,49.13
2022-09-25T19:07:07.832Z,45.60
2022-09-25T19:09:35.922Z,38.03
2022-09-25T19:12:06.114Z,43.97
2022-09-25T19:14:34.208Z,43.80
2022-09-25T19:17:02.353Z,45.90
2022-09-25T19:19:32.926Z,41.23
2022-09-25T19:22:01.120Z,40.10
2022-09-25T19:24:31.263Z,43.20
2022-09-25T19:26:59.476Z,46.00
2022-09-25T19:29:27.480Z,49.43
2022-09-25T19:31:55.540Z,46.47
2022-09-25T19:34:23.632Z,46.90
2022-09-25T19:36:53.854Z,61.60
2022-09-25T19:39:21.934Z,42.00
2022-09-25T19:41:51.299Z,36.70
2022-09-25T19:44:19.270Z,33.50
2022-09-25T19:46:48.458Z,40.17
2022-09-25T19:49:18.008Z,33.50
2022-09-25T19:51:46.023Z,33.00
2022-09-25T19:54:16.051Z,36.03
2022-09-25T19:56:46.414Z,35.60
2022-09-25T19:59:17.370Z,32.10
2022-09-25T20:01:46.121Z,35.23
2022-09-25T20:04:18.611Z,33.00
2022-09-25T20:06:48.508Z,28.43
2022-09-25T20:09:16.611Z,27.60
2022-09-25T20:11:44.858Z,27.43
2022-09-25T20:14:13.024Z,29.73
2022-09-25T20:16:42.424Z,37.13
2022-09-25T20:19:12.175Z,39.40
2022-09-25T20:21:41.481Z,42.33
2022-09-25T20:24:10.551Z,38.67
2022-09-25T20:26:39.599Z,40.20
2022-09-25T20:29:09.634Z,34.33
2022-09-25T20:31:39.479Z,37.60
2022-09-25T20:34:11.877Z,37.93
2022-09-25T20:36:40.463Z,32.40
2022-09-25T20:39:08.870Z,36.53
2022-09-25T20:41:37.223Z,38.23
2022-09-25T20:44:06.371Z,36.93
2022-09-25T20:46:35.090Z,35.40
2022-09-25T20:49:03.567Z,42.70
2022-09-25T20:51:35.187Z,41.20
2022-09-25T20:54:05.513Z,40.03
2022-09-25T20:56:34.871Z,36.67
2022-09-25T20:59:03.998Z,34.67
2022-09-25T21:01:34.548Z,40.00
2022-09-25T21:04:05.218Z,31.03
2022-09-25T21:06:36.707Z,34.70
2022-09-25T21:09:07.376Z,44.73
2022-09-25T21:11:35.970Z,36.50
2022-09-25T21:14:04.520Z,40.57
2022-09-25T21:16:34.407Z,43.00
2022-09-25T21:19:04.771Z,40.80
2022-09-25T21:21:34.743Z,39.20
2022-09-25T21:24:03.306Z,34.53
2022-09-25T21:26:32.527Z,38.63
2022-09-25T21:29:05.832Z,41.53
2022-09-25T21:31:36.679Z,36.60
2022-09-25T21:34:05.949Z,38.20
2022-09-25T21:36:35.267Z,36.40
2022-09-25T21:39:04.074Z,38.70
2022-09-25T21:41:32.644Z,35.87
2022-09-25T21:44:02.672Z,39.77
2022-09-25T21:46:31.387Z,38.07
2022-09-25T21:49:01.756Z,45.60
2022-09-25T21:51:31.936Z,45.50
2022-09-25T21:54:02.032Z,40.57
2022-09-25T21:56:31.806Z,37.63
2022-09-25T21:59:08.171Z,36.60
2022-09-25T22:01:38.718Z,34.57
2022-09-25T22:04:08.808Z,37.50
2022-09-25T22:06:38.183Z,37.37
2022-09-25T22:09:10.247Z,39.50
2022-09-25T22:11:39.190Z,39.50
2022-09-25T22:14:10.907Z,37.53
2022-09-25T22:16:43.649Z,34.87
2022-09-25T22:19:13.374Z,33.83
2022-09-25T22:21:42.940Z,35.13
2022-09-25T22:24:12.365Z,36.00
2022-09-25T22:26:42.870Z,31.37
2022-09-25T22:29:11.430Z,31.37
2022-09-25T22:31:42.929Z,37.27
2022-09-25T22:34:17.269Z,33.60
2022-09-25T22:36:45.860Z,35.07
2022-09-25T22:39:16.993Z,40.50
2022-09-25T22:41:45.395Z,33.87
2022-09-25T22:44:13.314Z,36.43
2022-09-25T22:46:41.262Z,32.70
2022-09-25T22:49:09.534Z,31.73
2022-09-25T22:51:37.863Z,36.53
2022-09-25T22:54:06.132Z,43.10
2022-09-25T22:56:36.367Z,39.57
2022-09-25T22:59:06.522Z,38.50
2022-09-25T23:01:41.953Z,32.73
2022-09-25T23:04:12.669Z,31.33
2022-09-25T23:06:40.721Z,34.37
2022-09-25T23:09:11.686Z,31.40
2022-09-25T23:11:41.853Z,34.07
2022-09-25T23:14:14.277Z,36.00
2022-09-25T23:16:55.379Z,34.40
2022-09-25T23:19:23.700Z,33.53
2022-09-25T23:21:52.794Z,33.20
2022-09-25T23:24:22.073Z,32.33
2022-09-25T23:26:52.274Z,29.47
2022-09-25T23:29:21.743Z,28.30
2022-09-25T23:31:50.983Z,39.63
2022-09-25T23:34:19.583Z,35.03
2022-09-25T23:36:47.927Z,34.90
2022-09-25T23:39:18.898Z,35.67
2022-09-25T23:41:47.404Z,33.73
2022-09-25T23:44:17.326Z,30.10
2022-09-25T23:46:45.649Z,30.93
2022-09-25T23:49:13.729Z,30.37
2022-09-25T23:51:42.237Z,32.10
2022-09-25T23:54:12.792Z,34.10
2022-09-25T23:56:41.317Z,30.50
2022-09-25T23:59:11.593Z,32.97
